createdAt,value
2018-12-26T00:00:30.866Z,78.10
2018-12-26T00:03:11.638Z,77.80
2018-12-26T00:05:52.659Z,78.60
2018-12-26T00:08:34.349Z,78.80
2018-12-26T00:11:15.612Z,78.90
2018-12-26T00:13:56.206Z,78.60
2018-12-26T00:16:36.997Z,78.80
2018-12-26T00:19:17.830Z,78.80
2018-12-26T00:21:59.059Z,79.10
2018-12-26T00:24:39.843Z,79.20
2018-12-26T00:27:20.751Z,79.40
2018-12-26T00:30:01.339Z,78.20
2018-12-26T00:32:42.174Z,79.30
2018-12-26T00:35:22.676Z,79.40
2018-12-26T00:38:03.486Z,79.20
2018-12-26T00:40:44.299Z,79.80
2018-12-26T00:43:25.275Z,80.00
2018-12-26T00:46:05.838Z,79.90
2018-12-26T00:48:46.986Z,77.30
2018-12-26T00:51:27.750Z,80.30
2018-12-26T00:54:08.789Z,80.20
2018-12-26T00:56:49.458Z,79.10
2018-12-26T00:59:30.437Z,80.10
2018-12-26T01:02:11.404Z,80.10
2018-12-26T01:04:52.783Z,79.50
2018-12-26T01:07:21.561Z,77.50
2018-12-26T01:10:09.638Z,80.20
2018-12-26T01:12:57.615Z,80.10
2018-12-26T01:15:38.694Z,80.20
2018-12-26T01:18:19.465Z,79.90
2018-12-26T01:21:00.208Z,80.40
2018-12-26T01:23:41.411Z,80.20
2018-12-26T01:26:22.124Z,79.40
2018-12-26T01:29:02.645Z,80.20
2018-12-26T01:31:43.046Z,80.30
2018-12-26T01:34:23.884Z,80.40
2018-12-26T01:37:04.896Z,80.70
2018-12-26T01:39:46.003Z,80.70
2018-12-26T01:42:26.669Z,80.70
2018-12-26T01:45:07.141Z,80.70
2018-12-26T01:47:48.296Z,79.80
2018-12-26T01:50:29.378Z,80.80
2018-12-26T01:53:09.878Z,81.00
2018-12-26T01:55:50.622Z,80.90
2018-12-26T01:58:32.006Z,81.10
2018-12-26T02:01:12.431Z,81.10
2018-12-26T02:03:53.150Z,80.00
2018-12-26T02:06:33.503Z,81.10
2018-12-26T02:09:15.268Z,80.50
2018-12-26T02:11:55.806Z,78.10
2018-12-26T02:14:37.542Z,81.00
2018-12-26T02:17:17.990Z,81.50
2018-12-26T02:19:58.614Z,80.50
2018-12-26T02:22:39.010Z,81.70
2018-12-26T02:25:19.691Z,81.90
2018-12-26T02:28:00.470Z,81.90
2018-12-26T02:30:41.482Z,82.10
2018-12-26T02:33:22.495Z,81.40
2018-12-26T02:36:03.389Z,82.30
2018-12-26T02:38:44.272Z,82.10
2018-12-26T02:41:25.257Z,82.40
2018-12-26T02:44:05.915Z,82.70
2018-12-26T02:46:46.749Z,82.40
2018-12-26T02:49:27.934Z,82.00
2018-12-26T02:52:08.614Z,82.80
2018-12-26T02:54:49.250Z,82.60
2018-12-26T02:57:29.957Z,79.40
2018-12-26T02:59:58.670Z,80.40
2018-12-26T03:02:46.639Z,83.70
2018-12-26T03:05:34.631Z,82.80
2018-12-26T03:08:15.450Z,82.80
2018-12-26T03:10:56.402Z,81.90
2018-12-26T03:13:37.367Z,82.60
2018-12-26T03:16:17.793Z,79.60
2018-12-26T03:18:58.595Z,82.30
2018-12-26T03:21:39.604Z,82.50
2018-12-26T03:24:20.451Z,82.80
2018-12-26T03:27:01.022Z,82.80
2018-12-26T03:29:42.578Z,82.80
2018-12-26T03:32:21.611Z,83.00
2018-12-26T03:35:02.545Z,82.90
2018-12-26T03:37:43.274Z,80.40
2018-12-26T03:40:24.766Z,82.40
2018-12-26T03:43:05.887Z,83.30
2018-12-26T03:45:46.683Z,83.30
2018-12-26T03:48:27.539Z,83.20
2018-12-26T03:51:09.103Z,83.20
2018-12-26T03:53:49.387Z,83.30
2018-12-26T03:56:30.622Z,82.80
2018-12-26T03:59:11.258Z,83.30
2018-12-26T04:01:52.259Z,83.10
2018-12-26T04:04:31.267Z,83.30
2018-12-26T04:07:12.254Z,83.20
2018-12-26T04:09:52.879Z,83.00
2018-12-26T04:12:33.797Z,83.10
2018-12-26T04:15:15.536Z,83.20
2018-12-26T04:17:56.188Z,83.40
2018-12-26T04:20:36.567Z,80.30
2018-12-26T04:23:17.322Z,83.20
2018-12-26T04:25:57.963Z,83.20
2018-12-26T04:28:39.091Z,83.00
2018-12-26T04:31:19.495Z,82.70
2018-12-26T04:34:00.275Z,81.00
2018-12-26T04:36:41.247Z,82.50
2018-12-26T04:39:22.202Z,83.10
2018-12-26T04:42:03.048Z,82.90
2018-12-26T04:44:43.810Z,83.10
2018-12-26T04:47:24.409Z,83.10
2018-12-26T04:50:08.641Z,82.90
2018-12-26T04:52:49.417Z,83.00
2018-12-26T04:55:30.361Z,83.00
2018-12-26T04:58:11.144Z,83.10
2018-12-26T05:00:52.234Z,83.10
2018-12-26T05:03:32.875Z,80.00
2018-12-26T05:06:13.619Z,82.80
2018-12-26T05:08:54.651Z,83.00
2018-12-26T05:11:35.975Z,83.10
2018-12-26T05:14:16.808Z,83.00
2018-12-26T05:16:57.561Z,80.20
2018-12-26T05:19:38.470Z,83.00
2018-12-26T05:22:19.545Z,83.20
2018-12-26T05:25:00.278Z,82.60
2018-12-26T05:27:41.250Z,80.20
2018-12-26T05:30:22.008Z,81.50
2018-12-26T05:33:02.989Z,83.20
2018-12-26T05:35:43.579Z,83.10
2018-12-26T05:38:24.605Z,80.90
2018-12-26T05:41:05.323Z,83.20
2018-12-26T05:43:46.394Z,82.60
2018-12-26T05:46:27.154Z,83.00
2018-12-26T05:49:07.902Z,82.90
2018-12-26T05:51:48.762Z,82.90
2018-12-26T05:54:29.945Z,83.10
2018-12-26T05:57:11.037Z,83.00
2018-12-26T05:59:51.958Z,83.00
2018-12-26T06:02:32.782Z,82.90
2018-12-26T06:05:13.874Z,82.30
2018-12-26T06:07:54.479Z,82.80
2018-12-26T06:10:35.311Z,82.70
2018-12-26T06:13:16.056Z,82.70
2018-12-26T06:15:57.225Z,83.00
2018-12-26T06:18:38.442Z,80.50
2018-12-26T06:21:19.582Z,83.00
2018-12-26T06:24:00.334Z,83.30
2018-12-26T06:26:41.273Z,83.20
2018-12-26T06:29:22.070Z,83.20
2018-12-26T06:32:03.243Z,82.40
2018-12-26T06:34:43.998Z,83.30
2018-12-26T06:37:25.025Z,83.60
2018-12-26T06:40:05.883Z,82.90
2018-12-26T06:42:46.626Z,83.50
2018-12-26T06:45:27.450Z,83.60
2018-12-26T06:48:08.458Z,80.60
2018-12-26T06:50:49.006Z,83.70
2018-12-26T06:53:29.877Z,82.70
2018-12-26T06:56:10.647Z,83.40
2018-12-26T06:58:52.118Z,83.50
2018-12-26T07:01:32.806Z,83.40
2018-12-26T07:04:14.049Z,83.00
2018-12-26T07:06:54.578Z,83.40
2018-12-26T07:09:35.400Z,83.20
2018-12-26T07:12:16.362Z,83.10
2018-12-26T07:14:57.739Z,83.40
2018-12-26T07:17:38.151Z,83.30
2018-12-26T07:20:18.990Z,80.50
2018-12-26T07:22:59.554Z,82.50
2018-12-26T07:25:41.040Z,83.10
2018-12-26T07:28:22.066Z,83.20
2018-12-26T07:31:02.622Z,83.20
2018-12-26T07:33:43.094Z,83.00
2018-12-26T07:36:24.220Z,79.90
2018-12-26T07:39:04.189Z,83.10
2018-12-26T07:41:45.359Z,83.20
2018-12-26T07:44:26.070Z,83.30
2018-12-26T07:47:06.977Z,83.00
2018-12-26T07:49:48.083Z,83.20
2018-12-26T07:52:28.990Z,83.30
2018-12-26T07:55:09.474Z,83.30
2018-12-26T07:57:50.794Z,82.90
2018-12-26T08:00:31.593Z,83.60
2018-12-26T08:03:12.470Z,82.20
2018-12-26T08:05:53.601Z,82.70
2018-12-26T08:08:34.661Z,83.50
2018-12-26T08:11:15.450Z,83.90
2018-12-26T08:13:56.606Z,84.00
2018-12-26T08:16:36.963Z,81.30
2018-12-26T08:19:17.755Z,84.20
2018-12-26T08:21:58.638Z,84.40
2018-12-26T08:24:39.278Z,84.40
2018-12-26T08:27:20.122Z,84.20
2018-12-26T08:30:01.396Z,84.50
2018-12-26T08:32:42.338Z,84.40
2018-12-26T08:35:23.294Z,84.50
2018-12-26T08:38:04.293Z,84.40
2018-12-26T08:40:45.238Z,84.40
2018-12-26T08:43:26.126Z,84.40
2018-12-26T08:46:07.214Z,84.60
2018-12-26T08:48:47.737Z,84.70
2018-12-26T08:51:28.564Z,84.50
2018-12-26T08:54:09.489Z,85.00
2018-12-26T08:56:50.640Z,84.50
2018-12-26T08:59:31.590Z,85.40
2018-12-26T09:02:12.250Z,85.50
2018-12-26T09:04:53.238Z,84.70
2018-12-26T09:07:34.030Z,82.90
2018-12-26T09:10:15.114Z,85.00
2018-12-26T09:12:56.238Z,85.90
2018-12-26T09:15:37.251Z,86.10
2018-12-26T09:18:18.143Z,86.40
2018-12-26T09:20:59.273Z,86.50
2018-12-26T09:23:40.324Z,86.70
2018-12-26T09:26:21.034Z,86.90
2018-12-26T09:29:02.021Z,86.90
2018-12-26T09:31:42.787Z,86.40
2018-12-26T09:34:23.778Z,86.80
2018-12-26T09:37:04.719Z,86.60
2018-12-26T09:39:45.575Z,86.90
2018-12-26T09:42:26.646Z,86.10
2018-12-26T09:45:07.447Z,87.00
2018-12-26T09:47:48.398Z,87.10
2018-12-26T09:50:29.534Z,86.70
2018-12-26T09:53:10.422Z,85.20
2018-12-26T09:55:51.291Z,87.20
2018-12-26T09:58:32.209Z,87.60
2018-12-26T10:01:13.077Z,85.60
2018-12-26T10:03:53.975Z,87.10
2018-12-26T10:06:34.591Z,86.90
2018-12-26T10:09:15.602Z,87.90
2018-12-26T10:11:57.499Z,88.00
2018-12-26T10:14:38.230Z,88.20
2018-12-26T10:17:19.242Z,88.00
2018-12-26T10:20:00.023Z,87.40
2018-12-26T10:22:41.054Z,85.30
2018-12-26T10:25:22.009Z,87.90
2018-12-26T10:28:02.838Z,84.90
2018-12-26T10:30:43.832Z,87.80
2018-12-26T10:33:24.791Z,87.90
2018-12-26T10:36:05.833Z,88.10
2018-12-26T10:38:46.571Z,88.40
2018-12-26T10:41:27.757Z,88.10
2018-12-26T10:44:08.729Z,88.50
2018-12-26T10:46:49.215Z,88.60
2018-12-26T10:49:30.282Z,87.80
2018-12-26T10:52:11.095Z,88.60
2018-12-26T10:54:52.151Z,88.40
2018-12-26T10:57:32.550Z,89.40
2018-12-26T11:00:13.758Z,89.30
2018-12-26T11:02:54.275Z,89.50
2018-12-26T11:05:35.022Z,89.20
2018-12-26T11:08:15.718Z,89.30
2018-12-26T11:10:56.486Z,89.30
2018-12-26T11:13:37.330Z,89.20
2018-12-26T11:16:18.047Z,89.30
2018-12-26T11:18:58.683Z,89.00
2018-12-26T11:21:39.426Z,88.70
2018-12-26T11:24:20.278Z,88.80
2018-12-26T11:27:01.170Z,85.90
2018-12-26T11:29:42.150Z,88.00
2018-12-26T11:32:22.704Z,88.40
2018-12-26T11:35:03.274Z,85.70
2018-12-26T11:37:44.422Z,88.50
2018-12-26T11:40:24.734Z,89.30
2018-12-26T11:43:05.926Z,89.30
2018-12-26T11:45:46.475Z,89.60
2018-12-26T11:48:27.600Z,89.60
2018-12-26T11:51:06.578Z,89.70
2018-12-26T11:53:47.066Z,89.40
2018-12-26T11:56:27.902Z,89.30
2018-12-26T11:59:09.080Z,87.30
2018-12-26T12:01:49.564Z,89.40
2018-12-26T12:04:30.555Z,89.00
2018-12-26T12:07:11.393Z,89.10
2018-12-26T12:09:52.075Z,89.00
2018-12-26T12:12:32.624Z,88.90
2018-12-26T12:15:13.375Z,88.50
2018-12-26T12:17:54.457Z,85.90
2018-12-26T12:20:35.512Z,88.20
2018-12-26T12:23:16.302Z,88.30
2018-12-26T12:25:57.326Z,87.50
2018-12-26T12:28:38.061Z,88.40
2018-12-26T12:31:18.904Z,88.60
2018-12-26T12:33:59.942Z,88.70
2018-12-26T12:36:41.035Z,85.60
2018-12-26T12:39:20.054Z,86.00
2018-12-26T12:42:00.888Z,88.80
2018-12-26T12:44:41.703Z,88.70
2018-12-26T12:47:22.463Z,88.10
2018-12-26T12:50:03.264Z,88.50
2018-12-26T12:52:44.678Z,86.40
2018-12-26T12:55:25.601Z,87.80
2018-12-26T12:58:06.283Z,85.80
2018-12-26T13:00:46.843Z,88.50
2018-12-26T13:03:27.757Z,88.50
2018-12-26T13:06:08.610Z,88.40
2018-12-26T13:08:49.935Z,88.40
2018-12-26T13:11:31.067Z,87.90
2018-12-26T13:14:12.144Z,88.10
2018-12-26T13:16:51.274Z,87.90
2018-12-26T13:19:32.788Z,87.30
2018-12-26T13:22:13.462Z,87.20
2018-12-26T13:24:54.709Z,87.80
2018-12-26T13:27:36.043Z,88.00
2018-12-26T13:30:17.410Z,87.90
2018-12-26T13:32:58.182Z,87.80
2018-12-26T13:35:39.209Z,87.80
2018-12-26T13:38:19.950Z,85.00
2018-12-26T13:41:00.518Z,86.70
2018-12-26T13:43:41.376Z,87.60
2018-12-26T13:46:22.753Z,88.10
2018-12-26T13:49:06.158Z,88.10
2018-12-26T13:51:47.286Z,86.80
2018-12-26T13:54:27.896Z,88.00
2018-12-26T13:57:08.894Z,88.00
2018-12-26T13:59:49.218Z,86.00
2018-12-26T14:02:30.113Z,85.40
2018-12-26T14:05:11.008Z,85.50
2018-12-26T14:07:51.996Z,88.40
2018-12-26T14:10:33.166Z,88.50
2018-12-26T14:13:14.568Z,88.50
2018-12-26T14:15:55.066Z,88.40
2018-12-26T14:18:35.606Z,85.70
2018-12-26T14:21:16.242Z,88.60
2018-12-26T14:23:57.339Z,88.50
2018-12-26T14:26:38.297Z,85.80
2018-12-26T14:29:19.239Z,88.50
2018-12-26T14:32:00.435Z,88.70
2018-12-26T14:34:41.319Z,87.70
2018-12-26T14:37:22.022Z,88.60
2018-12-26T14:40:03.360Z,88.40
2018-12-26T14:42:44.955Z,88.70
2018-12-26T14:45:27.762Z,85.50
2018-12-26T14:48:08.286Z,87.60
2018-12-26T14:50:50.094Z,89.40
2018-12-26T14:53:30.964Z,88.90
2018-12-26T14:56:12.966Z,88.00
2018-12-26T14:58:53.559Z,87.60
2018-12-26T15:01:35.262Z,88.70
2018-12-26T15:04:17.556Z,88.70
2018-12-26T15:06:58.435Z,88.60
2018-12-26T15:09:39.566Z,87.50
2018-12-26T15:12:20.139Z,88.90
2018-12-26T15:15:01.112Z,88.90
2018-12-26T15:17:44.828Z,89.10
2018-12-26T15:20:25.674Z,89.40
2018-12-26T15:23:09.671Z,89.40
2018-12-26T15:25:50.003Z,86.80
2018-12-26T15:28:30.964Z,88.40
2018-12-26T15:31:11.570Z,89.30
2018-12-26T15:33:52.714Z,86.40
2018-12-26T15:36:33.524Z,88.60
2018-12-26T15:39:14.378Z,89.40
2018-12-26T15:41:55.082Z,88.70
2018-12-26T15:44:36.314Z,89.20
2018-12-26T15:47:17.342Z,89.10
2018-12-26T15:49:58.517Z,89.40
2018-12-26T15:52:39.371Z,89.40
2018-12-26T15:55:20.299Z,89.40
2018-12-26T15:58:01.030Z,88.40
2018-12-26T16:00:42.162Z,89.20
2018-12-26T16:03:22.459Z,89.70
2018-12-26T16:06:03.619Z,89.00
2018-12-26T16:08:44.482Z,88.90
2018-12-26T16:11:25.150Z,87.70
2018-12-26T16:14:05.941Z,87.80
2018-12-26T16:16:47.007Z,88.00
2018-12-26T16:19:28.107Z,88.60
2018-12-26T16:22:09.056Z,87.50
2018-12-26T16:24:49.673Z,89.40
2018-12-26T16:27:30.245Z,88.60
2018-12-26T16:30:11.074Z,89.50
2018-12-26T16:32:51.738Z,90.10
2018-12-26T16:35:32.158Z,89.00
2018-12-26T16:38:13.184Z,89.20
2018-12-26T16:40:53.694Z,89.50
2018-12-26T16:43:34.614Z,86.60
2018-12-26T16:46:15.266Z,87.40
2018-12-26T16:48:56.258Z,86.40
2018-12-26T16:51:37.359Z,88.80
2018-12-26T16:54:17.714Z,89.70
2018-12-26T16:56:58.674Z,89.60
2018-12-26T16:59:39.541Z,89.80
2018-12-26T17:02:20.725Z,89.60
2018-12-26T17:05:01.551Z,89.00
2018-12-26T17:07:42.220Z,89.90
2018-12-26T17:10:23.634Z,89.80
2018-12-26T17:13:04.474Z,89.80
2018-12-26T17:15:45.590Z,89.70
2018-12-26T17:18:26.102Z,89.80
2018-12-26T17:21:06.481Z,89.70
2018-12-26T17:23:47.248Z,86.30
2018-12-26T17:26:27.647Z,89.60
2018-12-26T17:29:08.426Z,88.60
2018-12-26T17:31:49.391Z,89.30
2018-12-26T17:34:30.354Z,89.30
2018-12-26T17:37:11.043Z,86.40
2018-12-26T17:39:51.637Z,88.70
2018-12-26T17:42:32.816Z,87.10
2018-12-26T17:45:13.812Z,89.30
2018-12-26T17:47:56.020Z,86.10
2018-12-26T17:50:37.313Z,88.80
2018-12-26T17:53:18.429Z,87.30
2018-12-26T17:55:59.291Z,88.40
2018-12-26T17:58:40.654Z,86.60
2018-12-26T18:01:21.155Z,89.00
2018-12-26T18:04:02.065Z,86.40
2018-12-26T18:06:42.758Z,88.30
2018-12-26T18:09:23.938Z,88.30
2018-12-26T18:12:11.758Z,87.80
2018-12-26T18:14:47.806Z,88.20
2018-12-26T18:17:28.682Z,87.40
2018-12-26T18:20:09.469Z,87.70
2018-12-26T18:22:50.641Z,88.20
2018-12-26T18:25:31.222Z,87.20
2018-12-26T18:28:11.990Z,87.40
2018-12-26T18:30:52.619Z,87.30
2018-12-26T18:33:33.525Z,87.00
2018-12-26T18:36:14.194Z,87.30
2018-12-26T18:38:55.118Z,87.00
2018-12-26T18:41:36.195Z,87.30
2018-12-26T18:44:16.947Z,87.40
2018-12-26T18:46:57.902Z,87.60
2018-12-26T18:49:39.023Z,84.60
2018-12-26T18:52:19.340Z,87.10
2018-12-26T18:55:00.272Z,86.70
2018-12-26T18:57:41.506Z,86.80
2018-12-26T19:00:29.474Z,86.80
2018-12-26T19:03:10.601Z,86.60
2018-12-26T19:05:51.191Z,86.50
2018-12-26T19:08:32.066Z,86.10
2018-12-26T19:11:12.927Z,86.10
2018-12-26T19:13:53.893Z,86.00
2018-12-26T19:16:34.629Z,86.10
2018-12-26T19:19:15.550Z,86.00
2018-12-26T19:21:56.230Z,86.10
2018-12-26T19:24:37.122Z,86.10
2018-12-26T19:27:17.789Z,86.00
2018-12-26T19:29:59.511Z,82.60
2018-12-26T19:32:40.953Z,85.70
2018-12-26T19:35:21.922Z,85.50
2018-12-26T19:38:02.307Z,85.50
2018-12-26T19:40:44.826Z,85.50
2018-12-26T19:43:26.142Z,85.70
2018-12-26T19:46:06.862Z,85.00
2018-12-26T19:48:47.793Z,85.60
2018-12-26T19:51:28.394Z,85.70
2018-12-26T19:54:09.072Z,85.40
2018-12-26T19:56:50.214Z,85.40
2018-12-26T19:59:31.238Z,85.90
2018-12-26T20:02:12.168Z,86.00
2018-12-26T20:04:53.041Z,84.80
2018-12-26T20:07:34.010Z,85.70
2018-12-26T20:10:14.302Z,85.80
2018-12-26T20:12:55.265Z,85.50
2018-12-26T20:15:35.977Z,85.80
2018-12-26T20:18:16.745Z,85.70
2018-12-26T20:20:57.566Z,86.00
2018-12-26T20:23:38.162Z,85.60
2018-12-26T20:26:18.798Z,82.70
2018-12-26T20:28:59.636Z,85.30
2018-12-26T20:31:40.805Z,85.90
2018-12-26T20:34:21.955Z,86.10
2018-12-26T20:37:02.923Z,85.90
2018-12-26T20:39:43.573Z,85.90
2018-12-26T20:42:24.166Z,85.90
2018-12-26T20:45:05.040Z,85.70
2018-12-26T20:47:45.676Z,85.30
2018-12-26T20:50:26.385Z,84.70
2018-12-26T20:53:07.178Z,85.70
2018-12-26T20:55:47.813Z,85.80
2018-12-26T20:58:28.470Z,85.40
2018-12-26T21:01:09.475Z,85.30
2018-12-26T21:03:50.338Z,85.10
2018-12-26T21:06:31.674Z,85.70
2018-12-26T21:09:12.482Z,85.00
2018-12-26T21:11:53.526Z,85.20
2018-12-26T21:14:34.623Z,84.90
2018-12-26T21:17:15.213Z,84.90
2018-12-26T21:19:56.251Z,84.80
2018-12-26T21:22:37.002Z,85.00
2018-12-26T21:25:17.785Z,84.50
2018-12-26T21:27:59.006Z,84.50
2018-12-26T21:30:39.890Z,84.20
2018-12-26T21:33:20.798Z,84.30
2018-12-26T21:36:01.426Z,80.90
2018-12-26T21:38:42.598Z,83.70
2018-12-26T21:41:23.503Z,83.50
2018-12-26T21:44:06.648Z,83.10
2018-12-26T21:46:47.210Z,83.10
2018-12-26T21:49:28.034Z,83.10
2018-12-26T21:52:09.070Z,81.90
2018-12-26T21:54:50.178Z,81.30
2018-12-26T21:57:30.946Z,83.00
2018-12-26T22:00:12.046Z,82.80
2018-12-26T22:02:52.675Z,82.90
2018-12-26T22:05:33.871Z,82.90
2018-12-26T22:08:14.372Z,82.00
2018-12-26T22:10:55.339Z,82.50
2018-12-26T22:13:36.178Z,82.70
2018-12-26T22:16:17.301Z,82.80
2018-12-26T22:18:57.662Z,82.50
2018-12-26T22:21:39.137Z,82.10
2018-12-26T22:24:19.786Z,82.30
2018-12-26T22:27:00.814Z,82.10
2018-12-26T22:29:41.240Z,82.20
2018-12-26T22:32:22.178Z,82.20
2018-12-26T22:35:03.175Z,80.30
2018-12-26T22:37:44.542Z,81.80
2018-12-26T22:40:25.398Z,81.90
2018-12-26T22:43:06.122Z,78.80
2018-12-26T22:45:47.142Z,81.10
2018-12-26T22:48:27.888Z,81.60
2018-12-26T22:51:08.158Z,80.80
2018-12-26T22:53:49.142Z,81.10
2018-12-26T22:56:29.855Z,80.10
2018-12-26T22:59:10.618Z,80.30
2018-12-26T23:01:51.281Z,81.00
2018-12-26T23:04:32.325Z,77.90
2018-12-26T23:07:12.744Z,81.00
2018-12-26T23:09:53.634Z,80.50
2018-12-26T23:12:34.025Z,81.30
2018-12-26T23:15:14.978Z,81.30
2018-12-26T23:17:55.564Z,81.30
2018-12-26T23:20:36.694Z,80.40
2018-12-26T23:23:17.229Z,78.10
2018-12-26T23:25:58.518Z,80.60
2018-12-26T23:28:37.554Z,81.10
2018-12-26T23:31:18.950Z,81.30
2018-12-26T23:33:59.488Z,80.90
2018-12-26T23:36:40.270Z,79.20
2018-12-26T23:39:20.737Z,80.50
2018-12-26T23:42:01.477Z,80.50
2018-12-26T23:44:41.957Z,80.50
2018-12-26T23:47:23.031Z,80.10
2018-12-26T23:50:03.962Z,80.30
2018-12-26T23:52:43.058Z,80.50
2018-12-26T23:55:31.026Z,79.90
2018-12-26T23:58:12.186Z,80.30
